Castroville, California
Current Conditions -  °F | °C
As of 1:53 PM on Wednesday 28 Jan 2015 (Local Time) from KSNS Reporting Station
Clear Clear  
Wind Chill: 73°   Ceiling: Unl
Heat Index: 73°   Visibility: 10mi
Dew Point: 42°   Wind: 5mph
Humidity: 33%   Direction: 320°NW
Pressure: 30.15"   Gusts: NA
Location:  36.76°N, 121.75°W
Report Text: KSNS 282153Z AUTO 32004KT 10SM CLR 23/06 A3015 RMK AO2 SLP218 T02280056
Loading
Personal Weather Stations






























Interactive Weather Map New forecast layout! Learn more

10-Day Weather Forecast

Advertisements
Track Severe Weather on mobile